createdAt,value
2023-04-10T00:00:09.588Z,7.67
2023-04-10T00:00:42.126Z,7.67
2023-04-10T00:01:14.619Z,7.63
2023-04-10T00:01:47.193Z,7.63
2023-04-10T00:02:19.701Z,7.63
2023-04-10T00:02:52.270Z,7.63
2023-04-10T00:03:24.769Z,7.62
2023-04-10T00:03:57.384Z,7.62
2023-04-10T00:04:29.672Z,7.62
2023-04-10T00:05:02.152Z,7.63
2023-04-10T00:05:34.576Z,7.62
2023-04-10T00:06:07.063Z,7.63
2023-04-10T00:06:39.587Z,7.63
2023-04-10T00:07:12.054Z,7.62
2023-04-10T00:07:44.512Z,7.62
2023-04-10T00:08:17.045Z,7.60
2023-04-10T00:08:49.601Z,7.62
2023-04-10T00:09:22.177Z,7.60
2023-04-10T00:09:54.637Z,7.60
2023-04-10T00:10:27.122Z,7.59
2023-04-10T00:10:59.573Z,7.59
2023-04-10T00:11:32.166Z,7.59
2023-04-10T00:12:04.634Z,7.58
2023-04-10T00:12:37.136Z,7.58
2023-04-10T00:13:09.600Z,7.56
2023-04-10T00:13:42.040Z,7.56
2023-04-10T00:14:14.523Z,7.56
2023-04-10T00:14:47.027Z,7.59
2023-04-10T00:15:19.471Z,7.60
2023-04-10T00:15:51.968Z,7.60
2023-04-10T00:16:24.481Z,7.62
2023-04-10T00:16:56.929Z,7.60
2023-04-10T00:17:29.424Z,7.62
2023-04-10T00:18:02.015Z,7.62
2023-04-10T00:18:34.435Z,7.59
2023-04-10T00:19:06.940Z,7.59
2023-04-10T00:19:39.423Z,7.58
2023-04-10T00:20:11.914Z,7.56
2023-04-10T00:20:44.413Z,7.56
2023-04-10T00:21:16.893Z,7.56
2023-04-10T00:21:49.358Z,7.55
2023-04-10T00:22:21.847Z,7.55
2023-04-10T00:22:54.344Z,7.53
2023-04-10T00:23:26.858Z,7.52
2023-04-10T00:23:59.309Z,7.49
2023-04-10T00:24:31.829Z,7.49
2023-04-10T00:25:04.287Z,7.49
2023-04-10T00:25:36.766Z,7.49
2023-04-10T00:26:09.253Z,7.47
2023-04-10T00:26:41.734Z,7.45
2023-04-10T00:27:14.194Z,7.44
2023-04-10T00:27:46.688Z,7.42
2023-04-10T00:28:19.155Z,7.41
2023-04-10T00:28:51.730Z,7.41
2023-04-10T00:29:24.165Z,7.38
2023-04-10T00:29:56.654Z,7.37
2023-04-10T00:30:29.149Z,7.35
2023-04-10T00:31:01.673Z,7.35
2023-04-10T00:31:34.190Z,7.32
2023-04-10T00:32:06.631Z,7.31
2023-04-10T00:32:39.097Z,7.29
2023-04-10T00:33:11.521Z,7.32
2023-04-10T00:33:43.974Z,7.31
2023-04-10T00:34:16.457Z,7.27
2023-04-10T00:34:48.987Z,7.31
2023-04-10T00:35:21.451Z,7.29
2023-04-10T00:35:53.967Z,7.29
2023-04-10T00:36:26.406Z,7.29
2023-04-10T00:36:58.879Z,7.31
2023-04-10T00:37:31.361Z,7.31
2023-04-10T00:38:03.843Z,7.31
2023-04-10T00:38:36.305Z,7.31
2023-04-10T00:39:08.848Z,7.31
2023-04-10T00:39:41.297Z,7.31
2023-04-10T00:40:13.780Z,7.31
2023-04-10T00:40:46.205Z,7.29
2023-04-10T00:41:18.675Z,7.31
2023-04-10T00:41:51.301Z,7.29
2023-04-10T00:42:23.808Z,7.29
2023-04-10T00:42:56.280Z,7.29
2023-04-10T00:43:28.776Z,7.29
2023-04-10T00:44:01.271Z,7.29
2023-04-10T00:44:33.740Z,7.27
2023-04-10T00:45:06.213Z,7.27
2023-04-10T00:45:38.708Z,7.26
2023-04-10T00:46:11.193Z,7.27
2023-04-10T00:46:43.666Z,7.26
2023-04-10T00:47:16.134Z,7.24
2023-04-10T00:47:48.713Z,7.26
2023-04-10T00:48:21.082Z,7.23
2023-04-10T00:48:53.562Z,7.23
2023-04-10T00:49:26.031Z,7.23
2023-04-10T00:49:58.547Z,7.23
2023-04-10T00:50:31.045Z,7.22
2023-04-10T00:51:03.510Z,7.20
2023-04-10T00:51:35.981Z,7.19
2023-04-10T00:52:08.499Z,7.16
2023-04-10T00:52:40.973Z,7.16
2023-04-10T00:53:13.449Z,7.19
2023-04-10T00:53:45.931Z,7.17
2023-04-10T00:54:18.408Z,7.17
2023-04-10T00:54:50.868Z,7.15
2023-04-10T00:55:23.365Z,7.15
2023-04-10T00:55:55.881Z,7.16
2023-04-10T00:56:28.353Z,7.15
2023-04-10T00:57:00.897Z,7.16
2023-04-10T00:57:33.355Z,7.13
2023-04-10T00:58:05.818Z,7.17
2023-04-10T00:58:38.381Z,7.17
2023-04-10T00:59:10.870Z,7.15
2023-04-10T00:59:43.382Z,7.15
2023-04-10T01:00:15.903Z,7.15
2023-04-10T01:00:48.378Z,7.15
2023-04-10T01:01:20.923Z,7.15
2023-04-10T01:01:53.472Z,7.13
2023-04-10T01:02:25.997Z,7.12
2023-04-10T01:02:58.419Z,7.13
2023-04-10T01:03:30.862Z,7.16
2023-04-10T01:04:03.402Z,7.13
2023-04-10T01:04:35.873Z,7.16
2023-04-10T01:05:08.198Z,7.13
2023-04-10T01:05:40.697Z,7.15
2023-04-10T01:06:13.146Z,7.15
2023-04-10T01:06:45.656Z,7.15
2023-04-10T01:07:18.105Z,7.15
2023-04-10T01:07:50.584Z,7.15
2023-04-10T01:08:23.048Z,7.13
2023-04-10T01:08:55.535Z,7.13
2023-04-10T01:09:28.026Z,7.12
2023-04-10T01:10:00.494Z,7.12
2023-04-10T01:10:32.971Z,7.09
2023-04-10T01:11:05.444Z,7.08
2023-04-10T01:11:37.891Z,7.09
2023-04-10T01:12:10.399Z,7.08
2023-04-10T01:12:42.909Z,7.09
2023-04-10T01:13:15.416Z,7.12
2023-04-10T01:13:47.895Z,7.12
2023-04-10T01:14:20.368Z,7.09
2023-04-10T01:14:53.384Z,7.09
2023-04-10T01:15:25.886Z,7.09
2023-04-10T01:15:58.393Z,7.09
2023-04-10T01:16:30.905Z,7.12
2023-04-10T01:17:03.508Z,7.09
2023-04-10T01:17:35.858Z,7.08
2023-04-10T01:18:08.373Z,7.08
2023-04-10T01:18:40.818Z,7.13
2023-04-10T01:19:13.342Z,7.07
2023-04-10T01:19:45.880Z,7.08
2023-04-10T01:20:18.382Z,7.05
2023-04-10T01:20:50.881Z,7.05
2023-04-10T01:21:23.368Z,7.05
2023-04-10T01:21:55.896Z,7.04
2023-04-10T01:22:28.369Z,7.04
2023-04-10T01:23:00.839Z,7.04
2023-04-10T01:23:33.301Z,7.01
2023-04-10T01:24:05.797Z,7.01
2023-04-10T01:24:38.286Z,7.01
2023-04-10T01:25:10.759Z,7.01
2023-04-10T01:25:43.237Z,6.99
2023-04-10T01:26:15.805Z,7.01
2023-04-10T01:26:48.275Z,6.99
2023-04-10T01:27:20.756Z,7.01
2023-04-10T01:27:53.220Z,6.98
2023-04-10T01:28:25.746Z,6.98
2023-04-10T01:28:58.220Z,6.95
2023-04-10T01:29:30.695Z,6.97
2023-04-10T01:30:03.195Z,6.91
2023-04-10T01:30:35.733Z,6.95
2023-04-10T01:31:08.238Z,6.91
2023-04-10T01:31:40.687Z,6.91
2023-04-10T01:32:13.133Z,6.89
2023-04-10T01:32:45.632Z,6.90
2023-04-10T01:33:18.099Z,6.90
2023-04-10T01:33:50.581Z,6.90
2023-04-10T01:34:23.058Z,6.87
2023-04-10T01:34:55.556Z,6.87
2023-04-10T01:35:28.043Z,6.89
2023-04-10T01:36:00.511Z,6.87
2023-04-10T01:36:32.983Z,6.89
2023-04-10T01:37:05.483Z,6.91
2023-04-10T01:37:37.929Z,6.89
2023-04-10T01:38:10.430Z,6.90
2023-04-10T01:38:42.906Z,6.90
2023-04-10T01:39:15.463Z,6.90
2023-04-10T01:39:47.962Z,6.87
2023-04-10T01:40:20.401Z,6.89
2023-04-10T01:40:52.869Z,6.89
2023-04-10T01:41:25.406Z,6.87
2023-04-10T01:41:57.924Z,6.89
2023-04-10T01:42:30.352Z,6.89
2023-04-10T01:43:02.834Z,6.90
2023-04-10T01:43:35.301Z,6.90
2023-04-10T01:44:07.815Z,6.89
2023-04-10T01:44:40.300Z,6.90
2023-04-10T01:45:12.781Z,6.89
2023-04-10T01:45:45.261Z,6.90
2023-04-10T01:46:17.803Z,6.89
2023-04-10T01:46:50.218Z,6.89
2023-04-10T01:47:22.744Z,6.87
2023-04-10T01:47:55.206Z,6.87
2023-04-10T01:48:27.660Z,6.86
2023-04-10T01:49:00.201Z,6.87
2023-04-10T01:49:32.690Z,6.87
2023-04-10T01:50:05.140Z,6.86
2023-04-10T01:50:37.628Z,6.87
2023-04-10T01:51:10.132Z,6.89
2023-04-10T01:51:42.619Z,6.87
2023-04-10T01:52:15.091Z,6.87
2023-04-10T01:52:47.554Z,6.89
2023-04-10T01:53:20.050Z,6.89
2023-04-10T01:53:52.862Z,6.89
2023-04-10T01:54:25.021Z,6.89
2023-04-10T01:54:57.503Z,6.90
2023-04-10T01:55:29.982Z,6.90
2023-04-10T01:56:02.445Z,6.89
2023-04-10T01:56:34.942Z,6.91
2023-04-10T01:57:07.414Z,6.90
2023-04-10T01:57:39.868Z,6.91
2023-04-10T01:58:12.330Z,6.90
2023-04-10T01:58:44.817Z,6.90
2023-04-10T01:59:17.258Z,6.91
2023-04-10T01:59:49.766Z,6.91
2023-04-10T02:00:22.262Z,6.89
2023-04-10T02:00:54.730Z,6.89
2023-04-10T02:01:30.097Z,6.89
2023-04-10T02:01:59.763Z,6.89
2023-04-10T02:02:32.314Z,6.87
2023-04-10T02:03:04.823Z,6.86
2023-04-10T02:03:37.433Z,6.86
2023-04-10T02:04:09.709Z,6.84
2023-04-10T02:04:42.183Z,6.81
2023-04-10T02:05:14.676Z,6.83
2023-04-10T02:05:47.142Z,6.80
2023-04-10T02:06:19.611Z,6.81
2023-04-10T02:06:52.110Z,6.80
2023-04-10T02:07:24.576Z,6.79
2023-04-10T02:07:57.048Z,6.77
2023-04-10T02:08:29.501Z,6.77
2023-04-10T02:09:01.956Z,6.77
2023-04-10T02:09:34.449Z,6.77
2023-04-10T02:10:06.921Z,6.72
2023-04-10T02:10:39.410Z,6.73
2023-04-10T02:11:11.888Z,6.72
2023-04-10T02:11:44.351Z,6.71
2023-04-10T02:12:16.837Z,6.72
2023-04-10T02:12:49.317Z,6.71
2023-04-10T02:13:21.824Z,6.71
2023-04-10T02:13:54.542Z,6.71
2023-04-10T02:14:26.766Z,6.69
2023-04-10T02:14:59.395Z,6.71
2023-04-10T02:15:31.788Z,6.71
2023-04-10T02:16:04.448Z,6.71
2023-04-10T02:16:36.723Z,6.69
2023-04-10T02:17:09.241Z,6.71
2023-04-10T02:17:41.762Z,6.69
2023-04-10T02:18:14.215Z,6.69
2023-04-10T02:18:46.673Z,6.69
2023-04-10T02:19:19.147Z,6.68
2023-04-10T02:19:51.612Z,6.68
2023-04-10T02:20:24.159Z,6.68
2023-04-10T02:20:56.648Z,6.63
2023-04-10T02:21:29.134Z,6.63
2023-04-10T02:22:01.639Z,6.62
2023-04-10T02:22:34.105Z,6.63
2023-04-10T02:23:06.564Z,6.63
2023-04-10T02:23:39.046Z,6.62
2023-04-10T02:24:11.521Z,6.59
2023-04-10T02:24:43.966Z,6.61
2023-04-10T02:25:16.469Z,6.59
2023-04-10T02:25:48.943Z,6.61
2023-04-10T02:26:21.419Z,6.61
2023-04-10T02:26:53.928Z,6.61
2023-04-10T02:27:26.357Z,6.58
2023-04-10T02:27:58.819Z,6.56
2023-04-10T02:28:31.271Z,6.54
2023-04-10T02:29:03.740Z,6.58
2023-04-10T02:29:36.222Z,6.54
2023-04-10T02:30:08.669Z,6.58
2023-04-10T02:30:41.360Z,6.54
2023-04-10T02:31:13.874Z,6.56
2023-04-10T02:31:46.337Z,6.54
2023-04-10T02:32:18.778Z,6.53
2023-04-10T02:32:51.334Z,6.51
2023-04-10T02:33:23.747Z,6.51
2023-04-10T02:33:56.350Z,6.51
2023-04-10T02:34:28.716Z,6.53
2023-04-10T02:35:01.187Z,6.53
2023-04-10T02:35:33.678Z,6.53
2023-04-10T02:36:06.230Z,6.51
2023-04-10T02:36:38.624Z,6.53
2023-04-10T02:37:11.097Z,6.51
2023-04-10T02:37:43.554Z,6.53
2023-04-10T02:38:17.302Z,6.51
2023-04-10T02:38:48.517Z,6.51
2023-04-10T02:39:21.001Z,6.48
2023-04-10T02:39:53.492Z,6.50
2023-04-10T02:40:26.000Z,6.48
2023-04-10T02:40:58.477Z,6.50
2023-04-10T02:41:30.970Z,6.47
2023-04-10T02:42:03.437Z,6.48
2023-04-10T02:42:35.935Z,6.48
2023-04-10T02:43:08.411Z,6.48
2023-04-10T02:43:40.907Z,6.47
2023-04-10T02:44:13.385Z,6.48
2023-04-10T02:44:45.893Z,6.48
2023-04-10T02:45:18.393Z,6.47
2023-04-10T02:45:50.855Z,6.44
2023-04-10T02:46:23.440Z,6.46
2023-04-10T02:46:55.893Z,6.43
2023-04-10T02:47:28.387Z,6.44
2023-04-10T02:48:00.916Z,6.43
2023-04-10T02:48:33.315Z,6.43
2023-04-10T02:49:05.786Z,6.43
2023-04-10T02:49:38.260Z,6.41
2023-04-10T02:50:10.723Z,6.41
2023-04-10T02:50:43.170Z,6.41
2023-04-10T02:51:15.648Z,6.40
2023-04-10T02:51:48.152Z,6.41
2023-04-10T02:52:20.615Z,6.41
2023-04-10T02:52:53.103Z,6.44
2023-04-10T02:53:25.614Z,6.41
2023-04-10T02:53:58.067Z,6.41
2023-04-10T02:54:30.569Z,6.40
2023-04-10T02:55:03.047Z,6.38
2023-04-10T02:55:35.520Z,6.40
2023-04-10T02:56:07.978Z,6.38
2023-04-10T02:56:40.463Z,6.38
2023-04-10T02:57:12.983Z,6.40
2023-04-10T02:57:45.451Z,6.36
2023-04-10T02:58:17.942Z,6.36
2023-04-10T02:58:50.430Z,6.35
2023-04-10T02:59:22.965Z,6.38
2023-04-10T02:59:55.421Z,6.40
2023-04-10T03:00:27.891Z,6.40
2023-04-10T03:01:00.380Z,6.38
2023-04-10T03:01:32.894Z,6.41
2023-04-10T03:02:05.424Z,6.40
2023-04-10T03:02:37.989Z,6.41
2023-04-10T03:03:10.418Z,6.40
2023-04-10T03:03:42.851Z,6.41
2023-04-10T03:04:15.295Z,6.40
2023-04-10T03:04:47.767Z,6.40
2023-04-10T03:05:20.179Z,6.40
2023-04-10T03:05:52.661Z,6.40
2023-04-10T03:06:25.158Z,6.38
2023-04-10T03:06:57.653Z,6.38
2023-04-10T03:07:30.110Z,6.36
2023-04-10T03:08:02.594Z,6.36
2023-04-10T03:08:35.064Z,6.33
2023-04-10T03:09:07.531Z,6.33
2023-04-10T03:09:40.043Z,6.33
2023-04-10T03:10:12.505Z,6.33
2023-04-10T03:10:44.996Z,6.30
2023-04-10T03:11:17.448Z,6.30
2023-04-10T03:11:49.928Z,6.30
2023-04-10T03:12:22.444Z,6.28
2023-04-10T03:12:54.914Z,6.30
2023-04-10T03:13:27.428Z,6.29
2023-04-10T03:13:59.892Z,6.26
2023-04-10T03:14:32.360Z,6.28
2023-04-10T03:15:04.839Z,6.28
2023-04-10T03:15:37.316Z,6.28
2023-04-10T03:16:09.842Z,6.26
2023-04-10T03:16:42.332Z,6.26
2023-04-10T03:17:14.776Z,6.28
2023-04-10T03:17:47.287Z,6.26
2023-04-10T03:18:19.748Z,6.26
2023-04-10T03:18:52.272Z,6.25
2023-04-10T03:19:24.722Z,6.25
2023-04-10T03:19:57.194Z,6.25
2023-04-10T03:20:29.678Z,6.25
2023-04-10T03:21:02.209Z,6.25
2023-04-10T03:21:34.707Z,6.22
2023-04-10T03:22:07.201Z,6.22
2023-04-10T03:22:39.750Z,6.26
2023-04-10T03:23:12.165Z,6.25
2023-04-10T03:23:44.641Z,6.25
2023-04-10T03:24:17.137Z,6.22
2023-04-10T03:24:49.605Z,6.22
2023-04-10T03:25:22.096Z,6.22
2023-04-10T03:25:54.604Z,6.22
2023-04-10T03:26:27.096Z,6.21
2023-04-10T03:26:59.562Z,6.18
2023-04-10T03:27:32.052Z,6.18
2023-04-10T03:28:04.506Z,6.18
2023-04-10T03:28:36.977Z,6.19
2023-04-10T03:29:09.473Z,6.16
2023-04-10T03:29:41.971Z,6.19
2023-04-10T03:30:14.431Z,6.18
2023-04-10T03:30:46.909Z,6.19
2023-04-10T03:31:19.426Z,6.19
2023-04-10T03:31:51.907Z,6.18
2023-04-10T03:32:24.334Z,6.18
2023-04-10T03:32:56.874Z,6.19
2023-04-10T03:33:29.393Z,6.19
2023-04-10T03:34:01.949Z,6.21
2023-04-10T03:34:34.402Z,6.22
2023-04-10T03:35:06.870Z,6.21
2023-04-10T03:35:39.432Z,6.21
2023-04-10T03:36:11.897Z,6.22
2023-04-10T03:36:44.340Z,6.22
2023-04-10T03:37:16.835Z,6.25
2023-04-10T03:37:49.391Z,6.26
2023-04-10T03:38:21.856Z,6.26
2023-04-10T03:38:54.358Z,6.25
2023-04-10T03:39:26.847Z,6.26
2023-04-10T03:39:59.305Z,6.25
2023-04-10T03:40:31.829Z,6.28
2023-04-10T03:41:04.311Z,6.29
2023-04-10T03:41:36.807Z,6.30
2023-04-10T03:42:09.330Z,6.30
2023-04-10T03:42:41.809Z,6.29
2023-04-10T03:43:14.306Z,6.28
2023-04-10T03:43:46.815Z,6.28
2023-04-10T03:44:19.313Z,6.29
2023-04-10T03:44:51.791Z,6.28
2023-04-10T03:45:24.305Z,6.29
2023-04-10T03:45:56.770Z,6.29
2023-04-10T03:46:29.296Z,6.30
2023-04-10T03:47:01.774Z,6.30
2023-04-10T03:47:34.298Z,6.30
2023-04-10T03:48:06.769Z,6.29
2023-04-10T03:48:39.235Z,6.30
2023-04-10T03:49:11.700Z,6.29
2023-04-10T03:49:44.206Z,6.29
2023-04-10T03:50:16.721Z,6.30
2023-04-10T03:50:49.181Z,6.28
2023-04-10T03:51:21.680Z,6.30
2023-04-10T03:51:54.140Z,6.29
2023-04-10T03:52:26.639Z,6.30
2023-04-10T03:52:59.134Z,6.30
2023-04-10T03:53:32.919Z,6.30
2023-04-10T03:54:04.094Z,6.32
2023-04-10T03:54:36.562Z,6.33
2023-04-10T03:55:09.061Z,6.32
2023-04-10T03:55:41.526Z,6.30
2023-04-10T03:56:13.998Z,6.32
2023-04-10T03:56:46.529Z,6.33
2023-04-10T03:57:19.007Z,6.32
2023-04-10T03:57:51.469Z,6.33
2023-04-10T03:58:23.966Z,6.32
2023-04-10T03:58:56.444Z,6.33
2023-04-10T03:59:38.208Z,6.30
2023-04-10T04:00:01.472Z,6.30
2023-04-10T04:00:33.960Z,6.29
2023-04-10T04:01:06.422Z,6.30
2023-04-10T04:01:39.044Z,6.28
2023-04-10T04:02:11.544Z,6.29
2023-04-10T04:02:44.047Z,6.29
2023-04-10T04:03:16.590Z,6.28
2023-04-10T04:03:49.053Z,6.28
2023-04-10T04:04:21.431Z,6.28
2023-04-10T04:04:53.909Z,6.26
2023-04-10T04:05:26.372Z,6.26
2023-04-10T04:05:58.863Z,6.22
2023-04-10T04:06:31.349Z,6.22
2023-04-10T04:07:03.854Z,6.22
2023-04-10T04:07:36.306Z,6.21
2023-04-10T04:08:08.810Z,6.22
2023-04-10T04:08:41.306Z,6.22
2023-04-10T04:09:13.878Z,6.22
2023-04-10T04:09:46.384Z,6.22
2023-04-10T04:10:18.855Z,6.21
2023-04-10T04:10:51.341Z,6.21
2023-04-10T04:11:23.851Z,6.21
2023-04-10T04:11:56.313Z,6.22
2023-04-10T04:12:28.812Z,6.21
2023-04-10T04:13:01.278Z,6.22
2023-04-10T04:13:33.754Z,6.22
2023-04-10T04:15:51.287Z,6.22
2023-04-10T04:16:23.757Z,6.25
2023-04-10T04:16:56.247Z,6.22
2023-04-10T04:17:28.685Z,6.25
2023-04-10T04:18:01.115Z,6.25
2023-04-10T04:18:33.546Z,6.26
2023-04-10T04:19:05.992Z,6.26
2023-04-10T04:19:38.451Z,6.28
2023-04-10T04:20:10.894Z,6.26
2023-04-10T04:20:43.385Z,6.26
2023-04-10T04:21:15.832Z,6.26
2023-04-10T04:21:48.290Z,6.26
2023-04-10T04:22:20.746Z,6.26
2023-04-10T04:22:53.182Z,6.28
2023-04-10T04:23:25.662Z,6.22
2023-04-10T04:23:58.143Z,6.26
2023-04-10T04:24:30.606Z,6.25
2023-04-10T04:25:03.161Z,6.25
2023-04-10T04:25:35.618Z,6.21
2023-04-10T04:26:08.111Z,6.22
2023-04-10T04:26:40.605Z,6.25
2023-04-10T04:27:13.066Z,6.25
2023-04-10T04:27:45.523Z,6.22
2023-04-10T04:28:17.995Z,6.25
2023-04-10T04:28:50.468Z,6.22
2023-04-10T04:29:22.938Z,6.22
2023-04-10T04:29:55.392Z,6.26
2023-04-10T04:30:27.882Z,6.25
2023-04-10T04:31:00.374Z,6.25
2023-04-10T04:31:32.977Z,6.22
2023-04-10T04:32:05.348Z,6.22
2023-04-10T04:32:37.876Z,6.25
2023-04-10T04:33:10.289Z,6.25
2023-04-10T04:33:42.750Z,6.25
2023-04-10T04:34:15.219Z,6.28
2023-04-10T04:34:47.663Z,6.26
2023-04-10T04:35:20.144Z,6.26
2023-04-10T04:35:52.614Z,6.26
2023-04-10T04:36:25.031Z,6.28
2023-04-10T04:36:57.523Z,6.28
2023-04-10T04:37:29.964Z,6.26
2023-04-10T04:38:02.456Z,6.28
2023-04-10T04:38:34.909Z,6.29
2023-04-10T04:39:07.357Z,6.30
2023-04-10T04:39:39.825Z,6.32
2023-04-10T04:40:12.295Z,6.32
2023-04-10T04:40:44.722Z,6.30
2023-04-10T04:41:18.765Z,6.30
2023-04-10T04:41:49.708Z,6.30
2023-04-10T04:42:22.133Z,6.29
2023-04-10T04:42:54.618Z,6.30
2023-04-10T04:43:27.093Z,6.30
2023-04-10T04:43:59.560Z,6.30
2023-04-10T04:44:32.066Z,6.32
2023-04-10T04:45:04.522Z,6.32
2023-04-10T04:45:37.018Z,6.32
2023-04-10T04:46:09.501Z,6.33
2023-04-10T04:46:44.404Z,6.30
2023-04-10T04:47:14.386Z,6.30
2023-04-10T04:47:46.899Z,6.28
2023-04-10T04:48:19.303Z,6.28
2023-04-10T04:48:51.753Z,6.29
2023-04-10T04:49:24.231Z,6.28
2023-04-10T04:49:56.674Z,6.28
2023-04-10T04:50:29.133Z,6.26
2023-04-10T04:51:01.592Z,6.26
2023-04-10T04:51:34.064Z,6.22
2023-04-10T04:52:06.526Z,6.25
2023-04-10T04:52:38.993Z,6.26
2023-04-10T04:53:11.473Z,6.26
2023-04-10T04:53:43.907Z,6.25
2023-04-10T04:54:16.390Z,6.25
2023-04-10T04:54:48.831Z,6.26
2023-04-10T04:55:21.296Z,6.25
2023-04-10T04:55:53.713Z,6.26
2023-04-10T04:56:26.153Z,6.26
2023-04-10T04:56:58.616Z,6.25
2023-04-10T04:57:31.062Z,6.26
2023-04-10T04:58:03.525Z,6.22
2023-04-10T04:58:35.991Z,6.25
2023-04-10T04:59:08.508Z,6.25
2023-04-10T04:59:40.987Z,6.22
2023-04-10T05:00:13.444Z,6.22
2023-04-10T05:00:45.923Z,6.26
2023-04-10T05:01:18.468Z,6.25
2023-04-10T05:01:51.054Z,6.22
2023-04-10T05:02:23.478Z,6.25
2023-04-10T05:02:56.055Z,6.22
2023-04-10T05:03:28.596Z,6.21
2023-04-10T05:04:00.935Z,6.22
2023-04-10T05:04:33.337Z,6.22
2023-04-10T05:05:05.845Z,6.25
2023-04-10T05:05:38.301Z,6.26
2023-04-10T05:06:10.789Z,6.28
2023-04-10T05:06:43.263Z,6.28
2023-04-10T05:07:15.734Z,6.28
2023-04-10T05:07:48.203Z,6.28
2023-04-10T05:08:20.689Z,6.30
2023-04-10T05:08:53.621Z,6.29
2023-04-10T05:09:25.667Z,6.30
2023-04-10T05:09:58.134Z,6.30
2023-04-10T05:10:30.656Z,6.32
2023-04-10T05:11:03.112Z,6.32
2023-04-10T05:11:35.631Z,6.35
2023-04-10T05:12:08.070Z,6.38
2023-04-10T05:12:40.546Z,6.38
2023-04-10T05:13:13.068Z,6.38
2023-04-10T05:13:45.531Z,6.40
2023-04-10T05:14:17.997Z,6.41
2023-04-10T05:14:50.485Z,6.41
2023-04-10T05:15:22.937Z,6.41
2023-04-10T05:15:55.447Z,6.44
2023-04-10T05:16:27.930Z,6.44
2023-04-10T05:17:02.158Z,6.47
2023-04-10T05:17:32.848Z,6.47
2023-04-10T05:18:05.339Z,6.50
2023-04-10T05:18:37.817Z,6.50
2023-04-10T05:19:10.175Z,6.53
2023-04-10T05:19:42.637Z,6.53
2023-04-10T05:20:15.094Z,6.53
2023-04-10T05:20:47.538Z,6.56
2023-04-10T05:21:20.021Z,6.56
2023-04-10T05:21:52.464Z,6.54
2023-04-10T05:22:25.001Z,6.58
2023-04-10T05:22:57.560Z,6.58
2023-04-10T05:23:30.030Z,6.61
2023-04-10T05:24:02.555Z,6.59
2023-04-10T05:24:34.986Z,6.62
2023-04-10T05:25:07.501Z,6.63
2023-04-10T05:25:40.010Z,6.63
2023-04-10T05:26:12.406Z,6.65
2023-04-10T05:26:44.885Z,6.68
2023-04-10T05:27:17.385Z,6.69
2023-04-10T05:27:49.855Z,6.71
2023-04-10T05:28:22.337Z,6.69
2023-04-10T05:28:55.054Z,6.72
2023-04-10T05:29:27.269Z,6.72
2023-04-10T05:29:59.733Z,6.76
2023-04-10T05:30:32.197Z,6.73
2023-04-10T05:31:04.695Z,6.76
2023-04-10T05:31:37.184Z,6.80
2023-04-10T05:32:09.596Z,6.77
2023-04-10T05:32:42.072Z,6.79
2023-04-10T05:33:14.514Z,6.80
2023-04-10T05:33:47.025Z,6.81
2023-04-10T05:34:19.492Z,6.83
2023-04-10T05:34:51.971Z,6.83
2023-04-10T05:35:24.446Z,6.86
2023-04-10T05:35:56.928Z,6.87
2023-04-10T05:36:29.366Z,6.89
2023-04-10T05:37:01.846Z,6.90
2023-04-10T05:37:34.334Z,6.91
2023-04-10T05:38:06.823Z,6.94
2023-04-10T05:38:39.279Z,6.97
2023-04-10T05:39:11.738Z,6.97
2023-04-10T05:39:44.226Z,6.98
2023-04-10T05:40:16.685Z,6.99
2023-04-10T05:40:49.181Z,7.02
2023-04-10T05:41:21.619Z,7.02
2023-04-10T05:41:54.114Z,7.02
2023-04-10T05:42:26.568Z,7.05
2023-04-10T05:42:59.036Z,7.05
2023-04-10T05:43:31.500Z,7.07
2023-04-10T05:44:03.987Z,7.08
2023-04-10T05:44:36.463Z,7.12
2023-04-10T05:45:08.941Z,7.13
2023-04-10T05:45:41.395Z,7.12
2023-04-10T05:46:13.928Z,7.15
2023-04-10T05:46:46.455Z,7.16
2023-04-10T05:47:18.838Z,7.19
2023-04-10T05:47:51.333Z,7.22
2023-04-10T05:48:23.769Z,7.22
2023-04-10T05:48:56.545Z,7.22
2023-04-10T05:49:28.715Z,7.23
2023-04-10T05:50:01.191Z,7.29
2023-04-10T05:50:33.688Z,7.29
2023-04-10T05:51:06.188Z,7.29
2023-04-10T05:51:38.629Z,7.32
2023-04-10T05:52:11.094Z,7.32
2023-04-10T05:52:43.568Z,7.34
2023-04-10T05:53:16.027Z,7.38
2023-04-10T05:53:48.610Z,7.38
2023-04-10T05:54:21.147Z,7.41
2023-04-10T05:54:53.631Z,7.42
2023-04-10T05:55:26.096Z,7.44
2023-04-10T05:55:58.588Z,7.45
2023-04-10T05:56:31.054Z,7.44
2023-04-10T05:57:03.524Z,7.49
2023-04-10T05:57:36.029Z,7.49
2023-04-10T05:58:08.511Z,7.52
2023-04-10T05:58:40.998Z,7.52
2023-04-10T05:59:13.482Z,7.53
2023-04-10T05:59:45.942Z,7.55
2023-04-10T06:00:18.404Z,7.53
2023-04-10T06:00:50.883Z,7.55
2023-04-10T06:01:23.359Z,7.58
2023-04-10T06:01:55.854Z,7.58
2023-04-10T06:02:28.511Z,7.58
2023-04-10T06:03:00.894Z,7.60
2023-04-10T06:03:33.302Z,7.62
2023-04-10T06:04:05.802Z,7.63
2023-04-10T06:04:38.417Z,7.69
2023-04-10T06:05:10.723Z,7.69
2023-04-10T06:05:43.126Z,7.72
2023-04-10T06:06:15.622Z,7.72
2023-04-10T06:06:48.052Z,7.75
2023-04-10T06:07:20.550Z,7.75
2023-04-10T06:07:53.019Z,7.77
2023-04-10T06:08:25.510Z,7.78
2023-04-10T06:08:57.999Z,7.81
2023-04-10T06:09:30.479Z,7.84
2023-04-10T06:10:02.951Z,7.84
2023-04-10T06:10:35.415Z,7.84
2023-04-10T06:11:07.921Z,7.85
2023-04-10T06:11:40.372Z,7.85
2023-04-10T06:12:12.847Z,7.89
2023-04-10T06:12:45.326Z,7.90
2023-04-10T06:13:17.787Z,7.92
2023-04-10T06:13:50.263Z,7.92
2023-04-10T06:14:22.724Z,7.94
2023-04-10T06:14:55.204Z,7.96
2023-04-10T06:15:27.666Z,7.99
2023-04-10T06:16:00.244Z,8.00
2023-04-10T06:16:32.646Z,8.03
2023-04-10T06:17:05.070Z,8.04
2023-04-10T06:17:37.565Z,8.11
2023-04-10T06:18:10.049Z,8.11
2023-04-10T06:18:42.521Z,8.17
2023-04-10T06:19:14.967Z,8.21
2023-04-10T06:19:47.438Z,8.26
2023-04-10T06:20:19.913Z,8.30
2023-04-10T06:20:52.394Z,8.37
2023-04-10T06:21:24.818Z,8.44
2023-04-10T06:21:57.274Z,8.54
2023-04-10T06:22:29.719Z,8.63
2023-04-10T06:23:02.232Z,8.76
2023-04-10T06:23:34.676Z,8.90
2023-04-10T06:24:07.137Z,9.05
2023-04-10T06:24:39.573Z,9.23
2023-04-10T06:25:12.009Z,9.38
2023-04-10T06:25:44.534Z,9.57
2023-04-10T06:26:16.965Z,9.81
2023-04-10T06:26:49.434Z,10.00
2023-04-10T06:27:21.888Z,10.26
2023-04-10T06:27:54.347Z,10.52
2023-04-10T06:28:26.842Z,10.77
2023-04-10T06:28:59.305Z,10.98
2023-04-10T06:29:31.756Z,11.17
2023-04-10T06:30:04.264Z,11.38
2023-04-10T06:30:36.737Z,11.61
2023-04-10T06:31:09.264Z,11.87
2023-04-10T06:31:41.696Z,12.06
2023-04-10T06:32:14.231Z,12.30
2023-04-10T06:32:46.726Z,12.51
2023-04-10T06:33:19.163Z,12.67
2023-04-10T06:33:51.643Z,12.81
2023-04-10T06:34:24.119Z,12.89
2023-04-10T06:34:56.609Z,12.85
2023-04-10T06:35:29.095Z,12.85
2023-04-10T06:36:01.624Z,12.87
2023-04-10T06:36:34.113Z,13.03
2023-04-10T06:37:06.593Z,13.14
2023-04-10T06:37:39.054Z,13.27
2023-04-10T06:38:11.550Z,13.38
2023-04-10T06:38:44.037Z,13.51
2023-04-10T06:39:16.521Z,13.59
2023-04-10T06:39:49.061Z,13.65
2023-04-10T06:40:21.554Z,13.77
2023-04-10T06:40:54.029Z,13.94
2023-04-10T06:41:26.570Z,14.06
2023-04-10T06:41:59.036Z,14.29
2023-04-10T06:42:31.526Z,14.39
2023-04-10T06:43:04.001Z,14.49
2023-04-10T06:43:36.477Z,14.71
2023-04-10T06:44:08.933Z,14.93
2023-04-10T06:44:41.386Z,15.21
2023-04-10T06:45:13.866Z,15.48
2023-04-10T06:45:46.342Z,15.59
2023-04-10T06:46:18.873Z,15.72
2023-04-10T06:46:51.298Z,15.78
2023-04-10T06:47:23.889Z,15.79
2023-04-10T06:47:56.216Z,15.92
2023-04-10T06:48:28.665Z,16.07
2023-04-10T06:49:01.129Z,16.25
2023-04-10T06:49:33.599Z,16.55
2023-04-10T06:50:06.071Z,16.83
2023-04-10T06:50:38.551Z,16.99
2023-04-10T06:51:11.048Z,17.18
2023-04-10T06:51:43.504Z,17.55
2023-04-10T06:52:15.998Z,17.67
2023-04-10T06:52:48.486Z,17.87
2023-04-10T06:53:20.936Z,18.12
2023-04-10T06:53:53.432Z,18.33
2023-04-10T06:54:25.871Z,18.67
2023-04-10T06:54:58.330Z,18.80
2023-04-10T06:55:30.824Z,18.79
2023-04-10T06:56:03.845Z,18.98
2023-04-10T06:56:35.744Z,19.32
2023-04-10T06:57:08.202Z,19.66
2023-04-10T06:57:40.671Z,19.76
2023-04-10T06:58:13.106Z,19.79
2023-04-10T06:58:45.596Z,19.88
2023-04-10T06:59:18.064Z,19.97
2023-04-10T06:59:50.509Z,20.06
2023-04-10T07:00:23.004Z,20.30
2023-04-10T07:00:55.510Z,20.20
2023-04-10T07:01:28.033Z,19.84
2023-04-10T07:02:00.456Z,19.75
2023-04-10T07:02:32.892Z,19.65
2023-04-10T07:03:05.430Z,19.79
2023-04-10T07:03:37.812Z,19.86
2023-04-10T07:04:10.378Z,20.03
2023-04-10T07:04:42.753Z,20.13
2023-04-10T07:05:15.225Z,20.09
2023-04-10T07:05:47.853Z,19.75
2023-04-10T07:06:20.329Z,19.69
2023-04-10T07:06:52.791Z,19.78
2023-04-10T07:07:25.278Z,19.79
2023-04-10T07:07:57.754Z,20.03
2023-04-10T07:08:30.226Z,20.41
2023-04-10T07:09:02.690Z,20.72
2023-04-10T07:09:35.166Z,20.84
2023-04-10T07:10:07.639Z,20.83
2023-04-10T07:10:40.106Z,20.93
2023-04-10T07:11:12.584Z,20.86
2023-04-10T07:11:45.065Z,20.79
2023-04-10T07:12:17.544Z,20.86